Data for 06/10/2009

Time Sea-Level Adjusted Pressure Absolute Pressure Temperature Relative Humidity Dew Point   
(mb) (inHg) (mb) (inHg) (C) (F) (%) (C) (F)
00:05 1016 30 845 24.95 6.9 44.5 76 3.1 37.5
00:10 1016 30 845 24.95 6.9 44.4 76 3 37.5
00:15 1016 30 845 24.95 6.8 44.3 76 3 37.4
00:20 1016 30 845 24.95 6.8 44.3 77 3 37.5
00:25 1016 30 845 24.95 6.7 44.1 77 3 37.4
00:30 1016 30 845 24.95 6.6 43.9 78 3 37.4
00:35 1016 30 845 24.95 6.5 43.8 78 2.9 37.3
00:40 1015 29.97 845 24.95 6.5 43.6 78 2.9 37.2
00:45 1015 29.97 845 24.95 6.4 43.5 78 2.8 37.1
00:50 1015 29.97 845 24.95 6.3 43.4 78 2.8 37.1
00:55 1015 29.97 845 24.95 6.3 43.3 78 2.7 36.8
01:00 1015 29.97 844 24.92 6.3 43.3 77 2.6 36.7
01:05 1015 29.97 845 24.95 6.3 43.3 78 2.7 36.9
01:10 1015 29.97 845 24.95 6.2 43.1 78 2.6 36.8
01:15 1015 29.97 845 24.95 6.2 43.1 78 2.7 36.9
01:20 1015 29.97 845 24.95 6.1 43 79 2.7 36.9
01:25 1015 29.97 845 24.95 6 42.9 79 2.7 36.8
01:30 1015 29.97 844 24.92 6 42.8 79 2.6 36.6
01:35 1015 29.97 844 24.92 5.9 42.7 79 2.6 36.6
01:40 1015 29.97 844 24.92 5.9 42.5 79 2.6 36.6
01:45 1015 29.97 844 24.92 5.8 42.4 80 2.5 36.6
01:50 1015 29.97 845 24.95 5.7 42.3 80 2.5 36.5
01:55 1015 29.97 844 24.92 5.7 42.2 80 2.5 36.6
02:00 1015 29.97 844 24.92 5.6 42.1 80 2.5 36.5
02:05 1015 29.97 844 24.92 5.7 42.2 80 2.5 36.5
02:10 1015 29.97 844 24.92 5.6 42.2 80 2.5 36.5
02:15 1015 29.97 844 24.92 5.7 42.2 79 2.4 36.3
02:20 1015 29.97 844 24.92 5.7 42.2 79 2.4 36.3
02:25 1015 29.97 844 24.92 5.7 42.3 78 2.3 36.1
02:30 1015 29.97 844 24.92 5.8 42.4 78 2.3 36.1
02:35 1015 29.97 844 24.92 5.7 42.3 78 2.3 36.1
02:40 1015 29.97 844 24.92 5.7 42.3 78 2.2 36
02:45 1015 29.97 844 24.92 5.7 42.2 78 2.2 36
02:50 1015 29.97 844 24.92 5.7 42.3 78 2.2 35.9
02:55 1015 29.97 844 24.92 5.8 42.4 78 2.2 35.9
03:00 1015 29.97 844 24.92 5.8 42.4 77 2.1 35.7
03:05 1015 29.97 844 24.92 5.9 42.5 77 2.2 35.9
03:10 1015 29.97 844 24.92 5.8 42.5 77 2.2 35.9
03:15 1015 29.97 844 24.92 5.8 42.4 77 2.1 35.8
03:20 1015 29.97 844 24.92 5.8 42.4 77 2.1 35.7
03:25 1015 29.97 844 24.92 5.8 42.4 77 2 35.6
03:30 1015 29.97 844 24.92 5.8 42.4 77 2.1 35.7
03:35 1015 29.97 844 24.92 5.8 42.4 77 2.1 35.8
03:40 1015 29.97 844 24.92 5.7 42.2 78 2.1 35.8
03:45 1015 29.97 844 24.92 5.6 42.2 78 2.1 35.9
03:50 1015 29.97 844 24.92 5.6 42 79 2.2 35.9
03:55 1015 29.97 844 24.92 5.4 41.8 80 2.2 36
04:00 1015 29.97 844 24.92 5.3 41.6 81 2.3 36.1
04:05 1015 29.97 844 24.92 5.2 41.4 81 2.3 36.1
04:10 1015 29.97 844 24.92 5.2 41.3 82 2.3 36.1
04:15 1015 29.97 844 24.92 5.1 41.3 82 2.4 36.3
04:20 1015 29.97 844 24.92 5 41.1 83 2.3 36.2
04:25 1015 29.97 844 24.92 5 41 82 2.2 36
04:30 1015 29.97 844 24.92 5 41 83 2.3 36.2
04:35 1015 29.97 844 24.92 4.9 40.9 83 2.3 36.1
04:40 1015 29.97 844 24.92 4.9 40.8 83 2.2 36
04:45 1015 29.97 844 24.92 4.9 40.8 83 2.2 35.9
04:50 1015 29.97 845 24.95 4.9 40.8 83 2.2 35.9
04:55 1015 29.97 844 24.92 4.8 40.7 83 2.1 35.9
05:00 1015 29.97 845 24.95 4.8 40.7 83 2.1 35.9
05:05 1015 29.97 845 24.95 4.8 40.6 83 2.2 36
05:10 1015 29.97 845 24.95 4.8 40.6 83 2.2 35.9
05:15 1015 29.97 845 24.95 4.8 40.6 83 2.2 35.9
05:20 1015 29.97 845 24.95 4.8 40.6 83 2.2 35.9
05:25 1015 29.97 845 24.95 4.7 40.5 83 2.2 35.9
05:30 1015 29.97 844 24.92 4.8 40.6 83 2.1 35.8
05:35 1015 29.97 844 24.92 4.8 40.6 83 2.1 35.8
05:40 1015 29.97 844 24.92 4.7 40.5 83 2 35.7
05:45 1015 29.97 844 24.92 4.8 40.6 82 2 35.6
05:50 1015 29.97 845 24.95 4.8 40.6 82 2 35.6
05:55 1015 29.97 845 24.95 4.9 40.7 82 2 35.5
06:00 1015 29.97 845 24.95 4.9 40.8 82 2 35.6
06:05 1015 29.97 845 24.95 4.9 40.8 82 2 35.6
06:10 1015 29.97 845 24.95 4.9 40.8 82 2 35.6
06:15 1016 30 845 24.95 4.9 40.8 81 2 35.6
06:20 1015 29.97 845 24.95 4.9 40.8 81 2 35.6
06:25 1015 29.97 845 24.95 4.9 40.9 81 1.9 35.5
06:30 1015 29.97 845 24.95 5 41 80 1.9 35.4
06:35 1015 29.97 845 24.95 5 41 81 2 35.6
06:40 1015 29.97 845 24.95 5 41 81 2 35.6
06:45 1015 29.97 845 24.95 5.1 41.1 81 2 35.6
06:50 1016 30 845 24.95 5.1 41.2 80 2 35.6
06:55 1016 30 845 24.95 5.2 41.3 80 1.9 35.5
07:00 1016 30 845 24.95 5.3 41.5 79 2 35.6
07:05 1016 30 845 24.95 5.4 41.6 78 1.9 35.4
07:10 1016 30 845 24.95 5.4 41.7 79 2.1 35.8
07:15 1016 30 845 24.95 5.3 41.6 79 2.1 35.7
07:20 1016 30 845 24.95 5.5 41.9 79 2.1 35.8
07:25 1016 30 845 24.95 5.6 42.1 79 2.3 36.1
07:30 1016 30 845 24.95 5.6 42 79 2.3 36.2
07:35 1016 30 845 24.95 5.6 42 79 2.2 35.9
07:40 1016 30 845 24.95 5.7 42.2 79 2.3 36.1
07:45 1016 30 845 24.95 5.7 42.2 78 2.2 35.9
07:50 1016 30 845 24.95 5.8 42.4 77 2.1 35.8
07:55 1016 30 845 24.95 5.9 42.7 76 2 35.7
08:00 1016 30 845 24.95 6 42.8 76 2.2 35.9
08:05 1016 30 845 24.95 6.1 43 76 2.2 35.9
08:10 1016 30 845 24.95 6.2 43.1 75 2.2 35.9
08:15 1016 30 845 24.95 6.3 43.3 76 2.3 36.1
08:20 1016 30 845 24.95 6.4 43.5 75 2.2 36
08:25 1016 30 845 24.95 6.4 43.6 74 2.2 36
08:30 1016 30 845 24.95 6.4 43.5 75 2.2 36
08:35 1016 30 845 24.95 6.6 43.9 74 2.4 36.3
08:40 1016 30 845 24.95 7.2 44.9 70 2.2 35.9
08:45 1016 30 845 24.95 7.2 45 70 2.2 36
08:50 1016 30 845 24.95 7.4 45.3 69 2.2 35.9
08:55 1016 30 845 24.95 8.1 46.6 66 2.3 36.1
09:00 1016 30 845 24.95 7.9 46.3 68 2.5 36.4
09:05 1016 30 845 24.95 7.9 46.3 68 2.3 36.2
09:10 1016 30 845 24.95 7.9 46.2 68 2.4 36.4
09:15 1016 30 845 24.95 7.8 46 70 2.6 36.6
09:20 1016 30 845 24.95 7.8 46 69 2.4 36.3
09:25 1016 30 845 24.95 7.7 45.8 70 2.5 36.6
09:30 1016 30 845 24.95 8.2 46.7 68 2.7 36.8
09:35 1016 30 845 24.95 8.2 46.7 72 3.4 38.1
09:40 1016 30 845 24.95 8 46.4 74 3.7 38.7
09:45 1016 30 845 24.95 8.7 47.6 72 3.9 39.1
09:50 1016 30 845 24.95 9 48.3 68 3.4 38.1
09:55 1016 30 845 24.95 8.9 48.1 69 3.5 38.4
10:00 1016 30 845 24.95 9.1 48.4 67 3.4 38.1
10:05 1016 30 845 24.95 9.2 48.5 65 3 37.4
10:10 1016 30 845 24.95 9.6 49.3 64 3.2 37.7
10:15 1016 30 845 24.95 9.8 49.7 64 3.3 37.9
10:20 1016 30 845 24.95 9.4 49 64 3 37.3
10:25 1016 30 845 24.95 9.5 49.1 64 3.1 37.5
10:30 1016 30 845 24.95 10.1 50.2 63 3.3 38
10:35 1016 30 845 24.95 10.1 50.2 61 3 37.4
10:40 1016 30 845 24.95 9.8 49.6 65 3.7 38.6
10:45 1016 30 845 24.95 9.4 49 64 3 37.4
10:50 1016 30 845 24.95 9.4 48.9 64 3 37.3
10:55 1016 30 845 24.95 10.9 51.5 59 3.3 37.9
11:00 1016 30 845 24.95 10.3 50.6 63 3.6 38.5
11:05 1016 30 845 24.95 10.2 50.4 61 3.1 37.6
11:10 1016 30 845 24.95 11.1 52 56 2.8 37
11:15 1016 30 845 24.95 12 53.6 55 3.4 38
11:20 1016 30 845 24.95 12.5 54.5 52 3 37.3
11:25 1016 30 845 24.95 12.3 54.2 52 2.8 37
11:30 1016 30 845 24.95 12.8 55 49 2.3 36.1
11:35 1016 30 845 24.95 13.3 56 49 3.1 37.5
11:40 1016 30 845 24.95 11.9 53.4 56 3.4 38
11:45 1016 30 845 24.95 11.2 52.2 55 2.6 36.8
11:50 1016 30 845 24.95 11.6 52.9 54 2.6 36.6
11:55 1016 30 845 24.95 12.7 54.8 50 2.5 36.4
12:00 1016 30 845 24.95 12.7 54.9 53 3.3 38
12:05 1016 30 845 24.95 11.5 52.8 55 3 37.4
12:10 1016 30 845 24.95 11.9 53.4 52 2.5 36.5
12:15 1016 30 845 24.95 12.2 53.9 53 2.8 37.1
12:20 1016 30 845 24.95 12.1 53.8 53 2.8 37.1
12:25 1016 30 845 24.95 12.6 54.7 51 2.8 37.1
12:30 1016 30 845 24.95 12.1 53.9 52 2.8 37
12:35 1016 30 845 24.95 12.3 54.1 51 2.6 36.7
12:40 1016 30 845 24.95 12.7 54.8 48 1.9 35.4
12:45 1016 30 845 24.95 13.5 56.2 46 2.1 35.9
12:50 1015 29.97 845 24.95 14.2 57.5 45 2.5 36.5
12:55 1015 29.97 845 24.95 14.3 57.8 44 2.3 36.2
13:00 1015 29.97 845 24.95 14.1 57.4 44 2.2 35.9
13:05 1015 29.97 845 24.95 14.5 58.2 44 2.6 36.7
13:10 1015 29.97 845 24.95 15.1 59.1 43 2.6 36.7
13:15 1015 29.97 844 24.92 14.7 58.4 47 3.5 38.3
13:20 1015 29.97 844 24.92 14.6 58.2 45 2.7 36.9
13:25 1015 29.97 844 24.92 14.2 57.5 45 2.6 36.8
13:30 1015 29.97 844 24.92 13.9 57 45 2.1 35.8
13:35 1015 29.97 844 24.92 13.8 56.8 45 2 35.7
13:40 1015 29.97 844 24.92 14.5 58 42 1.7 35.1
13:45 1015 29.97 844 24.92 14.9 58.9 41 2 35.5
13:50 1015 29.97 844 24.92 15.7 60.3 40 2.1 35.8
13:55 1015 29.97 844 24.92 15.3 59.6 40 1.9 35.4
14:00 1015 29.97 844 24.92 15.6 60 38 1.3 34.3
14:05 1015 29.97 844 24.92 14.9 58.8 39 1 33.8
14:10 1015 29.97 844 24.92 15.5 59.9 34 -0 31.9
14:15 1015 29.97 844 24.92 15.9 60.5 36 1 33.7
14:20 1015 29.97 844 24.92 16.6 61.9 34 0.7 33.2
14:25 1015 29.97 844 24.92 17.9 64.3 30 0.4 32.8
14:30 1015 29.97 844 24.92 17.6 63.6 37 2.7 36.9
14:35 1015 29.97 844 24.92 15.4 59.8 41 2.4 36.3
14:40 1015 29.97 844 24.92 14.8 58.6 42 2.3 36.1
14:45 1015 29.97 844 24.92 14.9 58.7 42 2.1 35.8
14:50 1015 29.97 844 24.92 14.6 58.2 42 1.9 35.5
14:55 1015 29.97 844 24.92 14.6 58.3 40 1.1 34
15:00 1015 29.97 844 24.92 15.5 59.9 34 -0.1 31.8
15:05 1015 29.97 844 24.92 14.5 58.2 40 1.3 34.4
15:10 1015 29.97 844 24.92 14.4 57.9 42 1.7 35.1
15:15 1015 29.97 844 24.92 14.5 58 42 1.8 35.2
15:20 1015 29.97 844 24.92 14.3 57.8 42 1.8 35.2
15:25 1015 29.97 844 24.92 14.1 57.3 40 0.9 33.6
15:30 1015 29.97 844 24.92 14.4 57.8 41 1.5 34.7
15:35 1015 29.97 844 24.92 14.1 57.4 41 1.1 34
15:40 1015 29.97 844 24.92 14.4 57.8 39 0.8 33.5
15:45 1014 29.94 844 24.92 15.6 60 37 1.2 34.2
15:50 1014 29.94 844 24.92 16.2 61.1 36 1.3 34.3
15:55 1014 29.94 844 24.92 16.4 61.5 37 1.7 35.1
16:00 1014 29.94 844 24.92 15.5 59.9 38 1.2 34.1
16:05 1014 29.94 844 24.92 15.2 59.3 39 1.2 34.2
16:10 1015 29.97 844 24.92 15.1 59.1 43 2.6 36.6
16:15 1015 29.97 844 24.92 14.4 57.9 46 2.9 37.2
16:20 1015 29.97 844 24.92 14.2 57.5 46 2.6 36.7
16:25 1015 29.97 844 24.92 14 57.2 44 2.1 35.7
16:30 1015 29.97 844 24.92 14.1 57.4 44 2.2 35.9
16:35 1015 29.97 844 24.92 14.2 57.6 43 1.7 35.1
16:40 1015 29.97 844 24.92 14.7 58.5 40 1.4 34.5
16:45 1015 29.97 844 24.92 15.3 59.5 39 1.4 34.5
16:50 1015 29.97 844 24.92 15.4 59.7 36 0.5 32.9
16:55 1015 29.97 844 24.92 15.8 60.5 34 0.2 32.4
17:00 1015 29.97 844 24.92 16 60.8 34 0.4 32.7
17:05 1014 29.94 844 24.92 15.9 60.5 36 0.8 33.5
17:10 1014 29.94 844 24.92 16 60.8 36 1.1 34
17:15 1014 29.94 844 24.92 15.7 60.2 36 0.8 33.5
17:20 1014 29.94 844 24.92 15.2 59.3 38 0.9 33.7
17:25 1014 29.94 844 24.92 15.1 59.2 37 0.7 33.3
17:30 1014 29.94 844 24.92 15.1 59.2 38 0.9 33.7
17:35 1014 29.94 844 24.92 15.3 59.5 40 1.7 35.1
17:40 1014 29.94 844 24.92 15.5 59.8 41 2.3 36.1
17:45 1014 29.94 844 24.92 15.1 59.2 39 1.4 34.4
17:50 1014 29.94 844 24.92 15.3 59.6 40 1.8 35.2
17:55 1014 29.94 844 24.92 15 59.1 42 2.2 36
18:00 1014 29.94 844 24.92 15.1 59.2 41 2 35.6
18:05 1014 29.94 844 24.92 15 59 39 1.3 34.4
18:10 1014 29.94 844 24.92 15 59.1 41 1.8 35.3
18:15 1014 29.94 844 24.92 15.2 59.4 40 1.7 35.1
18:20 1014 29.94 844 24.92 14.9 58.9 41 1.7 35.1
18:25 1014 29.94 844 24.92 14.6 58.3 43 2.1 35.8
18:30 1014 29.94 844 24.92 14.6 58.4 42 1.8 35.3
18:35 1014 29.94 844 24.92 14.5 58 43 2.2 36
18:40 1015 29.97 844 24.92 14.5 58 44 2.3 36.1
18:45 1015 29.97 844 24.92 14.4 57.9 44 2.5 36.5
18:50 1015 29.97 844 24.92 14.3 57.7 45 2.6 36.7
18:55 1015 29.97 844 24.92 14.2 57.5 45 2.4 36.3
19:00 1015 29.97 844 24.92 13.9 57 46 2.4 36.4
19:05 1015 29.97 844 24.92 13.9 57 45 2.4 36.3
19:10 1015 29.97 844 24.92 13.8 56.9 44 2 35.6
19:15 1015 29.97 844 24.92 13.8 56.8 45 2.1 35.8
19:20 1015 29.97 844 24.92 13.7 56.6 45 2.1 35.7
19:25 1015 29.97 844 24.92 13.6 56.5 46 2.2 36
19:30 1015 29.97 844 24.92 13.5 56.3 45 2 35.7
19:35 1015 29.97 844 24.92 13.5 56.2 47 2.3 36.2
19:40 1015 29.97 844 24.92 13.3 56 46 2.1 35.8
19:45 1015 29.97 844 24.92 13.2 55.8 47 2.4 36.3
19:50 1015 29.97 844 24.92 13.2 55.7 48 2.5 36.4
19:55 1015 29.97 844 24.92 13 55.4 48 2.4 36.2
20:00 1015 29.97 844 24.92 12.9 55.3 49 2.6 36.7
20:05 1015 29.97 844 24.92 12.9 55.2 50 2.7 36.8
20:10 1015 29.97 844 24.92 12.8 55 50 2.8 37.1
20:15 1015 29.97 844 24.92 12.7 54.8 51 3 37.4
20:20 1015 29.97 844 24.92 12.6 54.6 51 2.9 37.1
20:25 1015 29.97 844 24.92 12.5 54.4 51 2.6 36.7
20:30 1015 29.97 844 24.92 12.4 54.3 52 2.9 37.2
20:35 1015 29.97 844 24.92 12.3 54.2 53 2.9 37.3
20:40 1015 29.97 844 24.92 12.2 54 53 2.9 37.3
20:45 1015 29.97 844 24.92 12.2 53.9 53 2.8 37.1
20:50 1015 29.97 844 24.92 12.1 53.8 53 2.9 37.3
20:55 1015 29.97 844 24.92 12 53.5 54 3 37.3
21:00 1015 29.97 844 24.92 11.9 53.3 54 2.8 37.1
21:05 1015 29.97 844 24.92 11.8 53.2 54 2.9 37.2
21:10 1015 29.97 844 24.92 11.7 53 54 2.8 37.1
21:15 1015 29.97 844 24.92 11.5 52.8 55 2.8 37
21:20 1015 29.97 844 24.92 11.5 52.6 55 2.7 36.9
21:25 1015 29.97 844 24.92 11.4 52.5 56 2.9 37.1
21:30 1015 29.97 844 24.92 11.3 52.3 56 2.8 37.1
21:35 1015 29.97 844 24.92 11.1 52 57 2.9 37.3
21:40 1015 29.97 845 24.95 11 51.8 57 2.9 37.3
21:45 1015 29.97 845 24.95 10.9 51.6 58 3 37.3
21:50 1015 29.97 845 24.95 10.8 51.4 57 2.8 37
21:55 1016 30 845 24.95 10.8 51.4 58 2.8 37.1
22:00 1016 30 845 24.95 10.7 51.3 57 2.7 36.8
22:05 1016 30 845 24.95 10.8 51.4 57 2.7 36.9
22:10 1016 30 845 24.95 10.7 51.2 57 2.6 36.7
22:15 1016 30 845 24.95 10.7 51.2 57 2.5 36.5
22:20 1016 30 845 24.95 10.6 51.2 57 2.4 36.3
22:25 1016 30 845 24.95 10.6 51.1 57 2.5 36.6
22:30 1016 30 845 24.95 10.6 51 58 2.6 36.6
22:35 1016 30 845 24.95 10.5 50.9 58 2.6 36.7
22:40 1016 30 845 24.95 10.4 50.7 58 2.6 36.7
22:45 1016 30 845 24.95 10.3 50.5 59 2.6 36.7
22:50 1016 30 845 24.95 10.2 50.4 60 2.8 37
22:55 1016 30 845 24.95 10.1 50.1 60 2.8 37
23:00 1016 30 845 24.95 10 50 61 2.8 37.1
23:05 1016 30 845 24.95 9.9 49.8 61 2.8 37.1
23:10 1016 30 845 24.95 9.9 49.8 61 2.8 37
23:15 1016 30 845 24.95 9.9 49.8 62 2.9 37.2
23:20 1016 30 845 24.95 9.8 49.6 62 2.9 37.2
23:25 1016 30 845 24.95 9.8 49.6 62 2.9 37.2
23:30 1016 30 845 24.95 9.7 49.5 63 3 37.5
23:35 1016 30 845 24.95 9.6 49.3 63 2.9 37.3
23:40 1016 30 845 24.95 9.6 49.2 64 3 37.5
23:45 1016 30 845 24.95 9.5 49.1 64 3 37.3
23:50 1016 30 845 24.95 9.6 49.2 63 3 37.4
23:55 1016 30 845 24.95 9.5 49.2 64 3 37.4
24:00 1016 30 845 24.95 9.5 49.2 64 3.1 37.5